sensor_id;sensor_type;location;lat;lon;timestamp;P1;durP1;ratioP1;P2;durP2;ratioP2
55931;SDS011;41837;55.700;37.984;2023-06-22T00:02:22;33.85;;;13.52;;
55931;SDS011;41837;55.700;37.984;2023-06-22T00:04:51;32.25;;;14.23;;
55931;SDS011;41837;55.700;37.984;2023-06-22T00:07:18;38.17;;;14.82;;
55931;SDS011;41837;55.700;37.984;2023-06-22T00:09:44;34.45;;;14.65;;
55931;SDS011;41837;55.700;37.984;2023-06-22T00:12:11;45.85;;;14.07;;
55931;SDS011;41837;55.700;37.984;2023-06-22T00:14:37;44.17;;;14.95;;
55931;SDS011;41837;55.700;37.984;2023-06-22T00:17:04;35.17;;;13.77;;
55931;SDS011;41837;55.700;37.984;2023-06-22T00:19:30;40.10;;;15.63;;
55931;SDS011;41837;55.700;37.984;2023-06-22T00:21:56;32.83;;;15.25;;
55931;SDS011;41837;55.700;37.984;2023-06-22T00:24:26;32.25;;;14.63;;
55931;SDS011;41837;55.700;37.984;2023-06-22T00:26:52;36.10;;;15.30;;
55931;SDS011;41837;55.700;37.984;2023-06-22T00:29:18;33.00;;;14.15;;
55931;SDS011;41837;55.700;37.984;2023-06-22T00:31:45;32.47;;;14.32;;
55931;SDS011;41837;55.700;37.984;2023-06-22T00:34:11;34.50;;;15.10;;
55931;SDS011;41837;55.700;37.984;2023-06-22T00:36:37;36.83;;;13.75;;
55931;SDS011;41837;55.700;37.984;2023-06-22T00:39:06;34.47;;;14.45;;
55931;SDS011;41837;55.700;37.984;2023-06-22T00:41:33;56.92;;;16.05;;
55931;SDS011;41837;55.700;37.984;2023-06-22T00:44:00;40.42;;;14.98;;
55931;SDS011;41837;55.700;37.984;2023-06-22T00:46:26;30.08;;;14.88;;
55931;SDS011;41837;55.700;37.984;2023-06-22T00:48:52;32.90;;;14.82;;
55931;SDS011;41837;55.700;37.984;2023-06-22T00:51:23;34.00;;;14.30;;
55931;SDS011;41837;55.700;37.984;2023-06-22T00:53:51;37.92;;;15.30;;
55931;SDS011;41837;55.700;37.984;2023-06-22T00:56:19;32.85;;;14.15;;
55931;SDS011;41837;55.700;37.984;2023-06-22T00:58:50;30.88;;;14.27;;
55931;SDS011;41837;55.700;37.984;2023-06-22T01:01:18;43.83;;;15.70;;
55931;SDS011;41837;55.700;37.984;2023-06-22T01:03:49;34.95;;;14.18;;
55931;SDS011;41837;55.700;37.984;2023-06-22T01:06:19;55.67;;;16.20;;
55931;SDS011;41837;55.700;37.984;2023-06-22T01:08:57;44.03;;;14.98;;
55931;SDS011;41837;55.700;37.984;2023-06-22T01:11:32;54.15;;;15.02;;
55931;SDS011;41837;55.700;37.984;2023-06-22T01:14:15;49.20;;;14.55;;
55931;SDS011;41837;55.700;37.984;2023-06-22T01:16:49;25.05;;;12.90;;
55931;SDS011;41837;55.700;37.984;2023-06-22T01:21:52;26.25;;;11.43;;
55931;SDS011;41837;55.700;37.984;2023-06-22T01:24:37;45.75;;;13.35;;
55931;SDS011;41837;55.700;37.984;2023-06-22T01:29:56;42.78;;;13.65;;
55931;SDS011;41837;55.700;37.984;2023-06-22T01:32:30;33.15;;;12.68;;
55931;SDS011;41837;55.700;37.984;2023-06-22T01:35:03;33.22;;;12.73;;
55931;SDS011;41837;55.700;37.984;2023-06-22T01:37:32;28.30;;;11.98;;
55931;SDS011;41837;55.700;37.984;2023-06-22T01:40:00;35.25;;;12.32;;
55931;SDS011;41837;55.700;37.984;2023-06-22T01:42:30;32.28;;;14.15;;
55931;SDS011;41837;55.700;37.984;2023-06-22T01:44:57;35.42;;;13.73;;
55931;SDS011;41837;55.700;37.984;2023-06-22T01:47:25;41.63;;;14.77;;
55931;SDS011;41837;55.700;37.984;2023-06-22T01:49:53;27.42;;;13.80;;
55931;SDS011;41837;55.700;37.984;2023-06-22T01:52:20;38.15;;;14.63;;
55931;SDS011;41837;55.700;37.984;2023-06-22T01:54:47;33.17;;;14.45;;
55931;SDS011;41837;55.700;37.984;2023-06-22T01:57:14;54.85;;;14.57;;
55931;SDS011;41837;55.700;37.984;2023-06-22T01:59:47;61.72;;;15.32;;
55931;SDS011;41837;55.700;37.984;2023-06-22T02:02:22;45.25;;;14.18;;
55931;SDS011;41837;55.700;37.984;2023-06-22T02:04:59;46.30;;;16.10;;
55931;SDS011;41837;55.700;37.984;2023-06-22T02:07:57;34.00;;;14.30;;
55931;SDS011;41837;55.700;37.984;2023-06-22T02:10:31;79.07;;;16.30;;
55931;SDS011;41837;55.700;37.984;2023-06-22T02:13:00;78.30;;;17.50;;
55931;SDS011;41837;55.700;37.984;2023-06-22T02:15:28;71.00;;;19.05;;
55931;SDS011;41837;55.700;37.984;2023-06-22T02:17:55;97.47;;;22.42;;
55931;SDS011;41837;55.700;37.984;2023-06-22T02:20:42;71.45;;;18.38;;
55931;SDS011;41837;55.700;37.984;2023-06-22T02:23:08;79.78;;;18.67;;
55931;SDS011;41837;55.700;37.984;2023-06-22T02:25:35;72.00;;;14.57;;
55931;SDS011;41837;55.700;37.984;2023-06-22T02:28:02;63.47;;;14.38;;
55931;SDS011;41837;55.700;37.984;2023-06-22T02:30:29;42.35;;;13.68;;
55931;SDS011;41837;55.700;37.984;2023-06-22T02:32:55;40.15;;;14.38;;
55931;SDS011;41837;55.700;37.984;2023-06-22T02:35:28;40.30;;;13.20;;
55931;SDS011;41837;55.700;37.984;2023-06-22T02:37:58;39.95;;;13.50;;
55931;SDS011;41837;55.700;37.984;2023-06-22T02:40:27;43.58;;;13.73;;
55931;SDS011;41837;55.700;37.984;2023-06-22T02:42:56;41.40;;;14.68;;
55931;SDS011;41837;55.700;37.984;2023-06-22T02:45:30;39.45;;;14.70;;
55931;SDS011;41837;55.700;37.984;2023-06-22T02:47:57;36.92;;;14.85;;
55931;SDS011;41837;55.700;37.984;2023-06-22T02:50:23;31.20;;;14.07;;
55931;SDS011;41837;55.700;37.984;2023-06-22T02:52:50;32.00;;;13.85;;
55931;SDS011;41837;55.700;37.984;2023-06-22T02:55:17;28.33;;;14.57;;
55931;SDS011;41837;55.700;37.984;2023-06-22T02:57:51;24.35;;;13.77;;
55931;SDS011;41837;55.700;37.984;2023-06-22T03:00:19;30.15;;;14.00;;
55931;SDS011;41837;55.700;37.984;2023-06-22T03:02:48;34.50;;;14.38;;
55931;SDS011;41837;55.700;37.984;2023-06-22T03:05:15;29.52;;;14.50;;
55931;SDS011;41837;55.700;37.984;2023-06-22T03:07:45;38.03;;;15.73;;
55931;SDS011;41837;55.700;37.984;2023-06-22T03:10:13;31.63;;;14.90;;
55931;SDS011;41837;55.700;37.984;2023-06-22T03:12:40;36.05;;;15.13;;
55931;SDS011;41837;55.700;37.984;2023-06-22T03:15:09;30.55;;;15.15;;
55931;SDS011;41837;55.700;37.984;2023-06-22T03:17:37;37.17;;;16.42;;
55931;SDS011;41837;55.700;37.984;2023-06-22T03:20:08;39.35;;;15.75;;
55931;SDS011;41837;55.700;37.984;2023-06-22T03:22:38;31.58;;;15.18;;
55931;SDS011;41837;55.700;37.984;2023-06-22T03:25:07;34.17;;;15.60;;
55931;SDS011;41837;55.700;37.984;2023-06-22T03:27:42;33.63;;;16.02;;
55931;SDS011;41837;55.700;37.984;2023-06-22T03:30:10;33.08;;;16.25;;
55931;SDS011;41837;55.700;37.984;2023-06-22T03:32:38;32.00;;;16.50;;
55931;SDS011;41837;55.700;37.984;2023-06-22T03:35:06;46.38;;;17.98;;
55931;SDS011;41837;55.700;37.984;2023-06-22T03:37:35;31.02;;;16.65;;
55931;SDS011;41837;55.700;37.984;2023-06-22T03:40:01;36.58;;;15.63;;
55931;SDS011;41837;55.700;37.984;2023-06-22T03:42:35;40.17;;;17.00;;
55931;SDS011;41837;55.700;37.984;2023-06-22T03:45:03;41.78;;;17.15;;
55931;SDS011;41837;55.700;37.984;2023-06-22T03:47:34;37.60;;;15.90;;
55931;SDS011;41837;55.700;37.984;2023-06-22T03:50:00;35.35;;;15.57;;
55931;SDS011;41837;55.700;37.984;2023-06-22T03:52:33;35.28;;;16.70;;
55931;SDS011;41837;55.700;37.984;2023-06-22T03:55:00;32.22;;;15.35;;
55931;SDS011;41837;55.700;37.984;2023-06-22T03:57:26;32.97;;;14.82;;
55931;SDS011;41837;55.700;37.984;2023-06-22T03:59:54;27.95;;;15.88;;
55931;SDS011;41837;55.700;37.984;2023-06-22T04:02:22;27.50;;;14.75;;
55931;SDS011;41837;55.700;37.984;2023-06-22T04:04:48;29.80;;;14.40;;
55931;SDS011;41837;55.700;37.984;2023-06-22T04:07:15;38.25;;;14.35;;
55931;SDS011;41837;55.700;37.984;2023-06-22T04:09:43;29.10;;;15.38;;
55931;SDS011;41837;55.700;37.984;2023-06-22T04:12:10;43.88;;;19.58;;
55931;SDS011;41837;55.700;37.984;2023-06-22T04:14:36;32.65;;;14.00;;
55931;SDS011;41837;55.700;37.984;2023-06-22T04:17:02;38.10;;;14.45;;
55931;SDS011;41837;55.700;37.984;2023-06-22T04:19:29;58.75;;;26.90;;
55931;SDS011;41837;55.700;37.984;2023-06-22T04:21:55;52.88;;;23.75;;
55931;SDS011;41837;55.700;37.984;2023-06-22T04:24:33;31.02;;;13.50;;
55931;SDS011;41837;55.700;37.984;2023-06-22T04:27:12;28.67;;;13.90;;
55931;SDS011;41837;55.700;37.984;2023-06-22T04:29:38;45.35;;;21.38;;
55931;SDS011;41837;55.700;37.984;2023-06-22T04:32:15;52.47;;;23.92;;
55931;SDS011;41837;55.700;37.984;2023-06-22T04:34:42;57.28;;;23.52;;
55931;SDS011;41837;55.700;37.984;2023-06-22T04:37:09;53.10;;;22.70;;
55931;SDS011;41837;55.700;37.984;2023-06-22T04:39:35;61.90;;;22.42;;
55931;SDS011;41837;55.700;37.984;2023-06-22T04:42:01;33.83;;;12.63;;
55931;SDS011;41837;55.700;37.984;2023-06-22T04:44:28;43.65;;;13.30;;
55931;SDS011;41837;55.700;37.984;2023-06-22T04:46:58;50.65;;;18.20;;
55931;SDS011;41837;55.700;37.984;2023-06-22T04:49:34;52.10;;;20.13;;
55931;SDS011;41837;55.700;37.984;2023-06-22T04:52:04;49.15;;;18.20;;
55931;SDS011;41837;55.700;37.984;2023-06-22T04:54:31;63.40;;;16.40;;
55931;SDS011;41837;55.700;37.984;2023-06-22T04:57:01;49.90;;;16.25;;
55931;SDS011;41837;55.700;37.984;2023-06-22T04:59:29;48.78;;;16.25;;
55931;SDS011;41837;55.700;37.984;2023-06-22T05:01:57;52.92;;;15.88;;
55931;SDS011;41837;55.700;37.984;2023-06-22T05:04:25;38.88;;;13.90;;
55931;SDS011;41837;55.700;37.984;2023-06-22T05:06:53;43.60;;;16.25;;
55931;SDS011;41837;55.700;37.984;2023-06-22T05:09:20;47.20;;;13.10;;
55931;SDS011;41837;55.700;37.984;2023-06-22T05:11:47;41.78;;;12.65;;
55931;SDS011;41837;55.700;37.984;2023-06-22T05:14:13;34.45;;;10.43;;
55931;SDS011;41837;55.700;37.984;2023-06-22T05:16:41;45.53;;;13.02;;
55931;SDS011;41837;55.700;37.984;2023-06-22T05:19:08;39.50;;;12.43;;
55931;SDS011;41837;55.700;37.984;2023-06-22T05:21:34;43.58;;;11.18;;
55931;SDS011;41837;55.700;37.984;2023-06-22T05:24:00;36.55;;;12.52;;
55931;SDS011;41837;55.700;37.984;2023-06-22T05:26:29;24.20;;;10.20;;
55931;SDS011;41837;55.700;37.984;2023-06-22T05:28:56;51.28;;;12.90;;
55931;SDS011;41837;55.700;37.984;2023-06-22T05:31:23;36.40;;;11.45;;
55931;SDS011;41837;55.700;37.984;2023-06-22T05:33:51;26.00;;;9.90;;
55931;SDS011;41837;55.700;37.984;2023-06-22T05:36:19;30.50;;;9.13;;
55931;SDS011;41837;55.700;37.984;2023-06-22T05:38:47;22.40;;;9.05;;
55931;SDS011;41837;55.700;37.984;2023-06-22T05:41:13;21.40;;;8.65;;
55931;SDS011;41837;55.700;37.984;2023-06-22T05:43:40;18.88;;;7.00;;
55931;SDS011;41837;55.700;37.984;2023-06-22T05:46:06;25.90;;;8.10;;
55931;SDS011;41837;55.700;37.984;2023-06-22T05:48:32;23.25;;;7.43;;
55931;SDS011;41837;55.700;37.984;2023-06-22T05:50:58;34.05;;;10.48;;
55931;SDS011;41837;55.700;37.984;2023-06-22T05:53:25;17.92;;;7.32;;
55931;SDS011;41837;55.700;37.984;2023-06-22T05:55:51;23.30;;;6.80;;
55931;SDS011;41837;55.700;37.984;2023-06-22T05:58:17;14.85;;;5.75;;
55931;SDS011;41837;55.700;37.984;2023-06-22T06:00:43;13.70;;;6.10;;
55931;SDS011;41837;55.700;37.984;2023-06-22T06:03:10;18.70;;;5.90;;
55931;SDS011;41837;55.700;37.984;2023-06-22T06:05:37;15.18;;;5.35;;
55931;SDS011;41837;55.700;37.984;2023-06-22T06:08:04;14.43;;;6.05;;
55931;SDS011;41837;55.700;37.984;2023-06-22T06:10:32;14.57;;;6.25;;
55931;SDS011;41837;55.700;37.984;2023-06-22T06:12:59;11.73;;;5.57;;
55931;SDS011;41837;55.700;37.984;2023-06-22T06:15:27;16.15;;;5.80;;
55931;SDS011;41837;55.700;37.984;2023-06-22T06:18:17;17.23;;;5.25;;
55931;SDS011;41837;55.700;37.984;2023-06-22T06:20:44;12.75;;;5.10;;
55931;SDS011;41837;55.700;37.984;2023-06-22T06:23:10;14.38;;;4.57;;
55931;SDS011;41837;55.700;37.984;2023-06-22T06:25:37;13.35;;;4.30;;
55931;SDS011;41837;55.700;37.984;2023-06-22T06:28:03;15.55;;;4.40;;
55931;SDS011;41837;55.700;37.984;2023-06-22T06:30:31;11.63;;;4.32;;
55931;SDS011;41837;55.700;37.984;2023-06-22T06:32:57;18.55;;;4.90;;
55931;SDS011;41837;55.700;37.984;2023-06-22T06:35:35;10.20;;;4.45;;
55931;SDS011;41837;55.700;37.984;2023-06-22T06:38:03;16.40;;;4.78;;
55931;SDS011;41837;55.700;37.984;2023-06-22T06:40:54;16.38;;;4.65;;
55931;SDS011;41837;55.700;37.984;2023-06-22T06:43:21;33.78;;;5.80;;
55931;SDS011;41837;55.700;37.984;2023-06-22T06:45:48;9.38;;;3.72;;
55931;SDS011;41837;55.700;37.984;2023-06-22T06:48:14;11.48;;;3.92;;
55931;SDS011;41837;55.700;37.984;2023-06-22T06:50:41;10.88;;;3.97;;
55931;SDS011;41837;55.700;37.984;2023-06-22T06:53:21;13.18;;;3.80;;
55931;SDS011;41837;55.700;37.984;2023-06-22T06:56:24;6.57;;;3.30;;
55931;SDS011;41837;55.700;37.984;2023-06-22T06:58:50;11.10;;;3.30;;
55931;SDS011;41837;55.700;37.984;2023-06-22T07:01:17;6.53;;;3.40;;
55931;SDS011;41837;55.700;37.984;2023-06-22T07:03:43;5.15;;;3.15;;
55931;SDS011;41837;55.700;37.984;2023-06-22T07:06:09;4.68;;;3.50;;
55931;SDS011;41837;55.700;37.984;2023-06-22T07:08:35;5.65;;;3.10;;
55931;SDS011;41837;55.700;37.984;2023-06-22T07:11:02;7.53;;;3.22;;
55931;SDS011;41837;55.700;37.984;2023-06-22T07:13:28;6.25;;;3.40;;
55931;SDS011;41837;55.700;37.984;2023-06-22T07:15:54;6.68;;;2.83;;
55931;SDS011;41837;55.700;37.984;2023-06-22T07:18:21;8.88;;;3.38;;
55931;SDS011;41837;55.700;37.984;2023-06-22T07:20:59;7.97;;;3.38;;
55931;SDS011;41837;55.700;37.984;2023-06-22T07:23:25;10.93;;;4.13;;
55931;SDS011;41837;55.700;37.984;2023-06-22T07:25:51;9.02;;;3.47;;
55931;SDS011;41837;55.700;37.984;2023-06-22T07:28:18;7.75;;;3.05;;
55931;SDS011;41837;55.700;37.984;2023-06-22T07:30:45;51.72;;;6.03;;
55931;SDS011;41837;55.700;37.984;2023-06-22T07:33:12;30.80;;;5.22;;
55931;SDS011;41837;55.700;37.984;2023-06-22T07:35:38;8.63;;;3.38;;
55931;SDS011;41837;55.700;37.984;2023-06-22T07:38:30;8.98;;;3.55;;
55931;SDS011;41837;55.700;37.984;2023-06-22T07:40:58;5.97;;;3.08;;
55931;SDS011;41837;55.700;37.984;2023-06-22T07:43:24;7.07;;;3.35;;
55931;SDS011;41837;55.700;37.984;2023-06-22T07:45:50;6.60;;;3.17;;
55931;SDS011;41837;55.700;37.984;2023-06-22T07:48:20;6.20;;;3.10;;
55931;SDS011;41837;55.700;37.984;2023-06-22T07:50:48;8.98;;;4.18;;
55931;SDS011;41837;55.700;37.984;2023-06-22T07:53:15;6.15;;;3.03;;
55931;SDS011;41837;55.700;37.984;2023-06-22T07:55:45;7.00;;;3.25;;
55931;SDS011;41837;55.700;37.984;2023-06-22T07:58:11;9.30;;;2.97;;
55931;SDS011;41837;55.700;37.984;2023-06-22T08:00:37;11.23;;;6.60;;
55931;SDS011;41837;55.700;37.984;2023-06-22T08:03:03;8.10;;;3.20;;
55931;SDS011;41837;55.700;37.984;2023-06-22T08:05:31;15.90;;;4.82;;
55931;SDS011;41837;55.700;37.984;2023-06-22T08:07:57;10.43;;;3.85;;
55931;SDS011;41837;55.700;37.984;2023-06-22T08:10:24;8.32;;;3.53;;
55931;SDS011;41837;55.700;37.984;2023-06-22T08:12:51;8.18;;;3.85;;
55931;SDS011;41837;55.700;37.984;2023-06-22T08:15:18;5.60;;;3.08;;
55931;SDS011;41837;55.700;37.984;2023-06-22T08:17:45;6.85;;;3.92;;
55931;SDS011;41837;55.700;37.984;2023-06-22T08:20:36;8.18;;;3.40;;
55931;SDS011;41837;55.700;37.984;2023-06-22T08:23:33;6.63;;;3.70;;
55931;SDS011;41837;55.700;37.984;2023-06-22T08:26:11;4.93;;;3.22;;
55931;SDS011;41837;55.700;37.984;2023-06-22T08:28:37;7.63;;;3.58;;
55931;SDS011;41837;55.700;37.984;2023-06-22T08:31:04;7.43;;;3.92;;
55931;SDS011;41837;55.700;37.984;2023-06-22T08:33:31;9.35;;;3.60;;
55931;SDS011;41837;55.700;37.984;2023-06-22T08:35:57;7.72;;;3.65;;
55931;SDS011;41837;55.700;37.984;2023-06-22T08:38:25;6.95;;;3.22;;
55931;SDS011;41837;55.700;37.984;2023-06-22T08:40:51;7.35;;;3.55;;
55931;SDS011;41837;55.700;37.984;2023-06-22T08:43:18;6.07;;;3.28;;
55931;SDS011;41837;55.700;37.984;2023-06-22T08:45:44;7.80;;;3.70;;
55931;SDS011;41837;55.700;37.984;2023-06-22T08:48:11;9.13;;;3.40;;
55931;SDS011;41837;55.700;37.984;2023-06-22T08:50:50;10.70;;;3.47;;
55931;SDS011;41837;55.700;37.984;2023-06-22T08:53:16;8.20;;;4.18;;
55931;SDS011;41837;55.700;37.984;2023-06-22T08:55:42;16.58;;;3.88;;
55931;SDS011;41837;55.700;37.984;2023-06-22T08:58:08;14.70;;;3.90;;
55931;SDS011;41837;55.700;37.984;2023-06-22T09:00:34;11.38;;;3.72;;
55931;SDS011;41837;55.700;37.984;2023-06-22T09:03:00;12.20;;;3.90;;
55931;SDS011;41837;55.700;37.984;2023-06-22T09:05:27;9.18;;;3.58;;
55931;SDS011;41837;55.700;37.984;2023-06-22T09:07:55;13.27;;;3.75;;
55931;SDS011;41837;55.700;37.984;2023-06-22T09:10:22;11.32;;;3.17;;
55931;SDS011;41837;55.700;37.984;2023-06-22T09:12:49;6.82;;;3.30;;
55931;SDS011;41837;55.700;37.984;2023-06-22T09:15:15;9.73;;;3.63;;
55931;SDS011;41837;55.700;37.984;2023-06-22T09:17:41;8.32;;;3.42;;
55931;SDS011;41837;55.700;37.984;2023-06-22T09:20:31;10.07;;;4.20;;
55931;SDS011;41837;55.700;37.984;2023-06-22T09:23:22;11.73;;;4.15;;
55931;SDS011;41837;55.700;37.984;2023-06-22T09:25:49;7.07;;;3.47;;
55931;SDS011;41837;55.700;37.984;2023-06-22T09:28:15;8.98;;;3.38;;
55931;SDS011;41837;55.700;37.984;2023-06-22T09:30:45;18.27;;;3.90;;
55931;SDS011;41837;55.700;37.984;2023-06-22T09:33:11;6.90;;;3.40;;
55931;SDS011;41837;55.700;37.984;2023-06-22T09:35:38;10.05;;;2.97;;
55931;SDS011;41837;55.700;37.984;2023-06-22T09:38:05;10.50;;;3.47;;
55931;SDS011;41837;55.700;37.984;2023-06-22T09:40:31;5.25;;;2.90;;
55931;SDS011;41837;55.700;37.984;2023-06-22T09:43:01;6.50;;;3.20;;
55931;SDS011;41837;55.700;37.984;2023-06-22T09:45:27;9.50;;;3.45;;
55931;SDS011;41837;55.700;37.984;2023-06-22T09:47:53;10.05;;;3.58;;
55931;SDS011;41837;55.700;37.984;2023-06-22T09:50:20;7.28;;;3.20;;
55931;SDS011;41837;55.700;37.984;2023-06-22T09:52:46;13.23;;;3.78;;
55931;SDS011;41837;55.700;37.984;2023-06-22T09:55:24;10.55;;;3.65;;
55931;SDS011;41837;55.700;37.984;2023-06-22T09:57:51;11.75;;;4.47;;
55931;SDS011;41837;55.700;37.984;2023-06-22T10:00:41;10.50;;;3.67;;
55931;SDS011;41837;55.700;37.984;2023-06-22T10:03:08;14.27;;;4.75;;
55931;SDS011;41837;55.700;37.984;2023-06-22T10:05:35;5.55;;;3.25;;
55931;SDS011;41837;55.700;37.984;2023-06-22T10:08:01;13.35;;;4.00;;
55931;SDS011;41837;55.700;37.984;2023-06-22T10:10:27;5.88;;;3.40;;
55931;SDS011;41837;55.700;37.984;2023-06-22T10:12:54;5.32;;;3.30;;
55931;SDS011;41837;55.700;37.984;2023-06-22T10:15:23;6.65;;;3.47;;
55931;SDS011;41837;55.700;37.984;2023-06-22T10:18:01;5.25;;;3.35;;
55931;SDS011;41837;55.700;37.984;2023-06-22T10:23:14;10.80;;;3.83;;
55931;SDS011;41837;55.700;37.984;2023-06-22T10:25:40;5.03;;;3.45;;
55931;SDS011;41837;55.700;37.984;2023-06-22T10:28:06;47.83;;;6.10;;
55931;SDS011;41837;55.700;37.984;2023-06-22T10:30:32;11.80;;;3.72;;
55931;SDS011;41837;55.700;37.984;2023-06-22T10:33:11;7.68;;;3.47;;
55931;SDS011;41837;55.700;37.984;2023-06-22T10:35:38;7.30;;;3.60;;
55931;SDS011;41837;55.700;37.984;2023-06-22T10:38:05;11.02;;;3.70;;
55931;SDS011;41837;55.700;37.984;2023-06-22T10:40:32;7.82;;;3.40;;
55931;SDS011;41837;55.700;37.984;2023-06-22T10:42:58;16.35;;;4.60;;
55931;SDS011;41837;55.700;37.984;2023-06-22T10:45:25;12.20;;;4.05;;
55931;SDS011;41837;55.700;37.984;2023-06-22T10:47:52;6.82;;;3.80;;
55931;SDS011;41837;55.700;37.984;2023-06-22T10:50:19;11.25;;;4.22;;
55931;SDS011;41837;55.700;37.984;2023-06-22T10:52:46;9.55;;;3.85;;
55931;SDS011;41837;55.700;37.984;2023-06-22T10:55:12;6.85;;;3.70;;
55931;SDS011;41837;55.700;37.984;2023-06-22T10:57:51;6.45;;;4.05;;
55931;SDS011;41837;55.700;37.984;2023-06-22T11:00:18;9.45;;;4.03;;
55931;SDS011;41837;55.700;37.984;2023-06-22T11:02:45;8.50;;;3.65;;
55931;SDS011;41837;55.700;37.984;2023-06-22T11:05:23;9.98;;;3.65;;
55931;SDS011;41837;55.700;37.984;2023-06-22T11:07:50;11.63;;;4.40;;
55931;SDS011;41837;55.700;37.984;2023-06-22T11:10:17;10.32;;;4.53;;
55931;SDS011;41837;55.700;37.984;2023-06-22T11:12:57;9.13;;;4.25;;
55931;SDS011;41837;55.700;37.984;2023-06-22T11:15:24;8.75;;;4.15;;
55931;SDS011;41837;55.700;37.984;2023-06-22T11:17:51;12.43;;;4.45;;
55931;SDS011;41837;55.700;37.984;2023-06-22T11:20:17;7.88;;;4.03;;
55931;SDS011;41837;55.700;37.984;2023-06-22T11:22:44;8.68;;;4.53;;
55931;SDS011;41837;55.700;37.984;2023-06-22T11:25:10;11.88;;;4.55;;
55931;SDS011;41837;55.700;37.984;2023-06-22T11:27:39;10.32;;;4.55;;
55931;SDS011;41837;55.700;37.984;2023-06-22T11:30:06;10.10;;;4.65;;
55931;SDS011;41837;55.700;37.984;2023-06-22T11:32:33;8.10;;;4.25;;
55931;SDS011;41837;55.700;37.984;2023-06-22T11:35:18;6.07;;;3.92;;
55931;SDS011;41837;55.700;37.984;2023-06-22T11:38:09;7.88;;;4.47;;
55931;SDS011;41837;55.700;37.984;2023-06-22T11:40:35;7.63;;;3.90;;
55931;SDS011;41837;55.700;37.984;2023-06-22T11:43:01;7.97;;;4.32;;
55931;SDS011;41837;55.700;37.984;2023-06-22T11:45:28;7.00;;;3.92;;
55931;SDS011;41837;55.700;37.984;2023-06-22T11:47:55;6.68;;;3.63;;
55931;SDS011;41837;55.700;37.984;2023-06-22T11:50:21;12.27;;;4.38;;
55931;SDS011;41837;55.700;37.984;2023-06-22T11:53:02;7.80;;;4.20;;
55931;SDS011;41837;55.700;37.984;2023-06-22T11:55:29;8.35;;;4.03;;
55931;SDS011;41837;55.700;37.984;2023-06-22T11:58:19;6.93;;;4.20;;
55931;SDS011;41837;55.700;37.984;2023-06-22T12:00:45;6.55;;;3.90;;
55931;SDS011;41837;55.700;37.984;2023-06-22T12:03:12;8.70;;;3.95;;
55931;SDS011;41837;55.700;37.984;2023-06-22T12:05:52;9.45;;;4.40;;
55931;SDS011;41837;55.700;37.984;2023-06-22T12:08:20;11.93;;;4.47;;
55931;SDS011;41837;55.700;37.984;2023-06-22T12:10:59;8.65;;;4.30;;
55931;SDS011;41837;55.700;37.984;2023-06-22T12:13:25;6.32;;;4.18;;
55931;SDS011;41837;55.700;37.984;2023-06-22T12:15:52;7.90;;;4.63;;
55931;SDS011;41837;55.700;37.984;2023-06-22T12:18:18;5.57;;;3.85;;
55931;SDS011;41837;55.700;37.984;2023-06-22T12:20:59;7.72;;;4.15;;
55931;SDS011;41837;55.700;37.984;2023-06-22T12:23:25;10.55;;;4.35;;
55931;SDS011;41837;55.700;37.984;2023-06-22T12:25:51;10.73;;;4.40;;
55931;SDS011;41837;55.700;37.984;2023-06-22T12:28:30;13.50;;;4.88;;
55931;SDS011;41837;55.700;37.984;2023-06-22T12:30:56;7.43;;;4.50;;
55931;SDS011;41837;55.700;37.984;2023-06-22T12:33:35;13.93;;;4.57;;
55931;SDS011;41837;55.700;37.984;2023-06-22T12:36:01;9.38;;;4.80;;
55931;SDS011;41837;55.700;37.984;2023-06-22T12:38:27;15.70;;;4.63;;
55931;SDS011;41837;55.700;37.984;2023-06-22T12:40:54;11.05;;;4.35;;
55931;SDS011;41837;55.700;37.984;2023-06-22T12:43:20;6.60;;;4.15;;
55931;SDS011;41837;55.700;37.984;2023-06-22T12:45:46;8.93;;;4.93;;
55931;SDS011;41837;55.700;37.984;2023-06-22T12:48:12;8.63;;;4.50;;
55931;SDS011;41837;55.700;37.984;2023-06-22T12:50:39;8.02;;;4.60;;
55931;SDS011;41837;55.700;37.984;2023-06-22T12:53:29;12.77;;;4.25;;
55931;SDS011;41837;55.700;37.984;2023-06-22T12:55:55;8.77;;;4.65;;
55931;SDS011;41837;55.700;37.984;2023-06-22T12:58:21;8.23;;;4.70;;
55931;SDS011;41837;55.700;37.984;2023-06-22T13:00:48;6.10;;;4.55;;
55931;SDS011;41837;55.700;37.984;2023-06-22T13:03:14;12.30;;;4.88;;
55931;SDS011;41837;55.700;37.984;2023-06-22T13:05:40;13.52;;;4.60;;
55931;SDS011;41837;55.700;37.984;2023-06-22T13:08:25;7.78;;;4.90;;
55931;SDS011;41837;55.700;37.984;2023-06-22T13:10:52;8.95;;;4.82;;
55931;SDS011;41837;55.700;37.984;2023-06-22T13:13:30;7.95;;;4.32;;
55931;SDS011;41837;55.700;37.984;2023-06-22T13:15:57;10.95;;;5.03;;
55931;SDS011;41837;55.700;37.984;2023-06-22T13:18:35;13.27;;;4.70;;
55931;SDS011;41837;55.700;37.984;2023-06-22T13:21:02;9.15;;;4.40;;
55931;SDS011;41837;55.700;37.984;2023-06-22T13:24:05;7.38;;;4.60;;
55931;SDS011;41837;55.700;37.984;2023-06-22T13:26:32;11.23;;;5.05;;
55931;SDS011;41837;55.700;37.984;2023-06-22T13:28:58;6.97;;;4.57;;
55931;SDS011;41837;55.700;37.984;2023-06-22T13:31:25;11.38;;;4.57;;
55931;SDS011;41837;55.700;37.984;2023-06-22T13:33:51;10.68;;;5.00;;
55931;SDS011;41837;55.700;37.984;2023-06-22T13:36:18;10.32;;;5.05;;
55931;SDS011;41837;55.700;37.984;2023-06-22T13:38:57;12.65;;;5.25;;
55931;SDS011;41837;55.700;37.984;2023-06-22T13:41:24;13.93;;;5.63;;
55931;SDS011;41837;55.700;37.984;2023-06-22T13:43:50;8.90;;;5.03;;
55931;SDS011;41837;55.700;37.984;2023-06-22T13:46:16;11.20;;;5.07;;
55931;SDS011;41837;55.700;37.984;2023-06-22T13:48:43;15.77;;;5.40;;
55931;SDS011;41837;55.700;37.984;2023-06-22T13:51:09;10.98;;;4.85;;
55931;SDS011;41837;55.700;37.984;2023-06-22T13:53:47;8.82;;;4.45;;
55931;SDS011;41837;55.700;37.984;2023-06-22T13:56:13;12.88;;;4.93;;
55931;SDS011;41837;55.700;37.984;2023-06-22T13:58:52;12.52;;;5.18;;
55931;SDS011;41837;55.700;37.984;2023-06-22T14:01:18;10.15;;;4.85;;
55931;SDS011;41837;55.700;37.984;2023-06-22T14:04:03;16.80;;;5.38;;
55931;SDS011;41837;55.700;37.984;2023-06-22T14:06:29;9.40;;;4.88;;
55931;SDS011;41837;55.700;37.984;2023-06-22T14:08:55;10.45;;;4.72;;
55931;SDS011;41837;55.700;37.984;2023-06-22T14:11:22;7.60;;;4.43;;
55931;SDS011;41837;55.700;37.984;2023-06-22T14:14:00;10.43;;;4.63;;
55931;SDS011;41837;55.700;37.984;2023-06-22T14:16:26;7.78;;;5.00;;
55931;SDS011;41837;55.700;37.984;2023-06-22T14:18:53;10.82;;;4.65;;
55931;SDS011;41837;55.700;37.984;2023-06-22T14:21:20;7.90;;;4.63;;
55931;SDS011;41837;55.700;37.984;2023-06-22T14:23:46;12.02;;;5.50;;
55931;SDS011;41837;55.700;37.984;2023-06-22T14:26:24;14.27;;;5.28;;
55931;SDS011;41837;55.700;37.984;2023-06-22T14:28:51;10.20;;;4.78;;
55931;SDS011;41837;55.700;37.984;2023-06-22T14:31:19;11.68;;;5.80;;
55931;SDS011;41837;55.700;37.984;2023-06-22T14:33:49;10.98;;;5.30;;
55931;SDS011;41837;55.700;37.984;2023-06-22T14:36:16;16.05;;;4.97;;
55931;SDS011;41837;55.700;37.984;2023-06-22T14:38:46;12.95;;;5.15;;
55931;SDS011;41837;55.700;37.984;2023-06-22T14:41:12;9.48;;;4.70;;
55931;SDS011;41837;55.700;37.984;2023-06-22T14:43:56;8.52;;;5.10;;